createdAt,value
2022-12-18T00:00:10.958Z,18.17
2022-12-18T00:01:19.395Z,18.63
2022-12-18T00:02:21.185Z,17.35
2022-12-18T00:03:22.751Z,17.58
2022-12-18T00:04:25.715Z,17.70
2022-12-18T00:05:27.355Z,17.50
2022-12-18T00:06:30.605Z,17.23
2022-12-18T00:08:33.417Z,16.40
2022-12-18T00:09:39.778Z,17.83
2022-12-18T00:10:42.197Z,17.77
2022-12-18T00:11:44.098Z,17.52
2022-12-18T00:12:48.962Z,16.05
2022-12-18T00:13:50.544Z,15.73
2022-12-18T00:14:52.081Z,17.02
2022-12-18T00:15:53.607Z,16.27
2022-12-18T00:17:01.541Z,16.60
2022-12-18T00:18:03.336Z,17.42
2022-12-18T00:19:06.347Z,16.75
2022-12-18T00:20:08.581Z,16.42
2022-12-18T00:21:11.758Z,16.90
2022-12-18T00:22:13.214Z,16.30
2022-12-18T00:23:14.646Z,19.23
2022-12-18T00:24:16.480Z,20.33
2022-12-18T00:25:17.906Z,18.65
2022-12-18T00:26:22.984Z,19.38
2022-12-18T00:27:24.423Z,18.00
2022-12-18T00:28:25.883Z,16.67
2022-12-18T00:29:27.406Z,17.33
2022-12-18T00:30:29.072Z,18.10
2022-12-18T00:31:30.667Z,16.20
2022-12-18T00:32:33.483Z,16.70
2022-12-18T00:33:35.874Z,16.58
2022-12-18T00:34:37.935Z,15.93
2022-12-18T00:35:39.375Z,14.77
2022-12-18T00:36:42.100Z,15.68
2022-12-18T00:37:43.578Z,16.85
2022-12-18T00:38:46.035Z,14.98
2022-12-18T00:39:49.548Z,16.10
2022-12-18T00:40:51.346Z,15.98
2022-12-18T00:42:11.606Z,16.15
2022-12-18T00:43:13.118Z,17.70
2022-12-18T00:44:17.173Z,22.35
2022-12-18T00:45:18.659Z,30.40
2022-12-18T00:46:20.213Z,29.13
2022-12-18T00:47:21.686Z,27.27
2022-12-18T00:48:23.310Z,24.98
2022-12-18T00:49:25.113Z,23.50
2022-12-18T00:50:26.988Z,25.48
2022-12-18T00:51:28.748Z,25.25
2022-12-18T00:52:30.236Z,23.98
2022-12-18T00:53:31.741Z,23.58
2022-12-18T00:54:33.525Z,22.90
2022-12-18T00:55:35.345Z,20.65
2022-12-18T00:56:45.761Z,19.33
2022-12-18T00:57:52.796Z,21.45
2022-12-18T00:58:54.324Z,21.63
2022-12-18T00:59:56.285Z,21.48
2022-12-18T01:00:57.737Z,21.42
2022-12-18T01:01:59.731Z,21.13
2022-12-18T01:03:01.325Z,18.77
2022-12-18T01:04:04.202Z,18.98
2022-12-18T01:05:06.305Z,18.80
2022-12-18T01:06:09.492Z,18.42
2022-12-18T01:08:12.469Z,19.15
2022-12-18T01:09:14.888Z,19.73
2022-12-18T01:10:16.360Z,20.55
2022-12-18T01:11:20.364Z,23.42
2022-12-18T01:12:21.907Z,21.48
2022-12-18T01:13:23.350Z,21.08
2022-12-18T01:14:25.260Z,21.40
2022-12-18T01:15:26.874Z,16.67
2022-12-18T01:16:28.555Z,16.05
2022-12-18T01:17:30.098Z,15.98
2022-12-18T01:18:31.575Z,15.80
2022-12-18T01:19:33.307Z,15.68
2022-12-18T01:20:34.776Z,14.90
2022-12-18T01:21:36.492Z,15.05
2022-12-18T01:22:38.015Z,15.52
2022-12-18T01:23:39.999Z,15.68
2022-12-18T01:24:42.186Z,14.75
2022-12-18T01:25:43.616Z,15.38
2022-12-18T01:26:45.025Z,15.20
2022-12-18T01:27:46.479Z,15.35
2022-12-18T01:28:47.998Z,15.20
2022-12-18T01:29:50.795Z,15.63
2022-12-18T01:30:52.609Z,14.20
2022-12-18T01:31:56.457Z,15.10
2022-12-18T01:32:58.577Z,14.32
2022-12-18T01:34:05.942Z,14.88
2022-12-18T01:35:07.994Z,13.70
2022-12-18T01:36:15.957Z,14.05
2022-12-18T01:37:17.464Z,14.20
2022-12-18T01:38:18.967Z,14.02
2022-12-18T01:39:20.762Z,14.05
2022-12-18T01:40:22.871Z,13.70
2022-12-18T01:41:27.851Z,14.48
2022-12-18T01:42:29.397Z,14.27
2022-12-18T01:43:53.518Z,13.43
2022-12-18T01:45:07.748Z,12.82
2022-12-18T01:46:09.259Z,13.65
2022-12-18T01:47:34.149Z,13.02
2022-12-18T01:48:35.666Z,12.68
2022-12-18T01:49:37.476Z,13.00
2022-12-18T01:50:43.974Z,13.63
2022-12-18T01:51:45.478Z,13.18
2022-12-18T01:53:00.433Z,13.30
2022-12-18T01:54:01.925Z,13.00
2022-12-18T01:55:06.251Z,14.05
2022-12-18T01:56:09.879Z,13.32
2022-12-18T01:57:11.524Z,13.77
2022-12-18T01:58:13.441Z,13.32
2022-12-18T01:59:15.653Z,12.65
2022-12-18T02:00:20.576Z,12.48
2022-12-18T02:01:26.252Z,13.07
2022-12-18T02:02:30.092Z,13.43
2022-12-18T02:03:31.706Z,14.32
2022-12-18T02:04:33.522Z,12.73
2022-12-18T02:05:49.234Z,13.68
2022-12-18T02:07:01.015Z,12.98
2022-12-18T02:08:08.117Z,13.43
2022-12-18T02:09:30.820Z,13.90
2022-12-18T02:10:53.801Z,13.02
2022-12-18T02:12:08.963Z,13.88
2022-12-18T02:13:22.080Z,13.18
2022-12-18T02:14:45.075Z,13.50
2022-12-18T02:16:00.139Z,15.70
2022-12-18T02:17:12.645Z,14.15
2022-12-18T02:18:22.148Z,14.57
2022-12-18T02:19:56.311Z,15.15
2022-12-18T02:22:27.355Z,14.27
2022-12-18T02:23:50.092Z,14.25
2022-12-18T02:25:02.761Z,14.70
2022-12-18T02:26:07.602Z,15.95
2022-12-18T02:27:11.669Z,15.07
2022-12-18T02:28:19.449Z,15.25
2022-12-18T02:29:46.534Z,15.45
2022-12-18T02:30:51.838Z,13.50
2022-12-18T02:31:56.857Z,14.57
2022-12-18T02:33:00.066Z,15.25
2022-12-18T02:35:08.083Z,15.85
2022-12-18T02:36:11.878Z,14.98
2022-12-18T02:37:17.671Z,15.48
2022-12-18T02:38:19.277Z,16.80
2022-12-18T02:39:23.077Z,17.98
2022-12-18T02:40:27.196Z,16.13
2022-12-18T02:41:29.496Z,17.27
2022-12-18T02:42:31.616Z,17.83
2022-12-18T02:43:33.087Z,17.00
2022-12-18T02:44:39.027Z,17.88
2022-12-18T02:45:54.755Z,18.60
2022-12-18T02:46:56.381Z,16.80
2022-12-18T02:47:57.927Z,17.70
2022-12-18T02:49:10.671Z,18.52
2022-12-18T02:50:27.803Z,19.83
2022-12-18T02:51:46.558Z,17.85
2022-12-18T02:53:03.146Z,17.50
2022-12-18T02:54:17.405Z,17.38
2022-12-18T02:55:49.726Z,17.02
2022-12-18T02:56:58.826Z,16.23
2022-12-18T02:58:16.710Z,16.92
2022-12-18T02:59:25.395Z,17.17
2022-12-18T03:00:40.053Z,17.50
2022-12-18T03:01:54.673Z,16.10
2022-12-18T03:03:08.189Z,18.05
2022-12-18T03:04:41.777Z,16.92
2022-12-18T03:06:10.598Z,15.65
2022-12-18T03:07:20.402Z,16.23
2022-12-18T03:08:37.052Z,15.80
2022-12-18T03:09:44.591Z,16.50
2022-12-18T03:10:56.789Z,17.95
2022-12-18T03:12:23.520Z,16.58
2022-12-18T03:13:35.178Z,15.38
2022-12-18T03:14:39.129Z,15.98
2022-12-18T03:15:48.754Z,15.40
2022-12-18T03:16:55.012Z,15.35
2022-12-18T03:18:02.847Z,15.23
2022-12-18T03:19:13.114Z,16.15
2022-12-18T03:20:18.770Z,13.65
2022-12-18T03:21:27.482Z,15.07
2022-12-18T03:22:33.134Z,15.30
2022-12-18T03:23:43.959Z,14.50
2022-12-18T03:24:47.597Z,14.52
2022-12-18T03:25:52.717Z,14.95
2022-12-18T03:26:59.093Z,15.27
2022-12-18T03:28:03.880Z,14.65
2022-12-18T03:29:10.009Z,15.75
2022-12-18T03:30:14.623Z,14.00
2022-12-18T03:31:17.551Z,14.90
2022-12-18T03:32:32.339Z,15.73
2022-12-18T03:33:53.222Z,15.20
2022-12-18T03:34:59.981Z,16.15
2022-12-18T03:36:02.018Z,15.52
2022-12-18T03:37:03.651Z,15.07
2022-12-18T03:38:05.501Z,15.95
2022-12-18T03:39:06.990Z,15.00
2022-12-18T03:40:09.461Z,15.27
2022-12-18T03:41:44.419Z,15.82
2022-12-18T03:43:11.334Z,14.85
2022-12-18T03:44:26.219Z,14.00
2022-12-18T03:45:36.045Z,15.10
2022-12-18T03:46:50.480Z,15.48
2022-12-18T03:48:18.693Z,15.68
2022-12-18T03:49:31.381Z,14.02
2022-12-18T03:50:48.125Z,15.13
2022-12-18T03:51:55.407Z,14.90
2022-12-18T03:53:15.562Z,15.02
2022-12-18T03:54:18.217Z,14.85
2022-12-18T03:55:22.586Z,14.43
2022-12-18T03:56:26.835Z,14.88
2022-12-18T03:57:31.890Z,14.98
2022-12-18T03:58:35.153Z,13.95
2022-12-18T04:00:40.990Z,11.93
2022-12-18T04:01:48.480Z,13.85
2022-12-18T04:02:54.159Z,12.23
2022-12-18T04:03:57.807Z,12.32
2022-12-18T04:05:03.623Z,14.25
2022-12-18T04:06:07.053Z,13.43
2022-12-18T04:07:08.885Z,12.20
2022-12-18T04:08:10.558Z,12.68
2022-12-18T04:09:12.245Z,12.52
2022-12-18T04:10:15.776Z,12.20
2022-12-18T04:11:17.650Z,12.70
2022-12-18T04:12:19.073Z,10.95
2022-12-18T04:13:25.022Z,12.13
2022-12-18T04:14:26.503Z,12.20
2022-12-18T04:15:28.386Z,11.52
2022-12-18T04:16:30.191Z,11.57
2022-12-18T04:17:31.613Z,12.23
2022-12-18T04:18:33.166Z,11.07
2022-12-18T04:19:35.072Z,10.88
2022-12-18T04:20:36.533Z,11.15
2022-12-18T04:21:37.972Z,12.30
2022-12-18T04:22:39.409Z,11.85
2022-12-18T04:23:41.291Z,11.75
2022-12-18T04:24:43.391Z,12.48
2022-12-18T04:25:44.872Z,11.68
2022-12-18T04:26:46.506Z,11.85
2022-12-18T04:27:47.930Z,11.70
2022-12-18T04:28:49.396Z,12.32
2022-12-18T04:29:51.161Z,12.07
2022-12-18T04:30:52.596Z,12.13
2022-12-18T04:31:54.055Z,12.07
2022-12-18T04:32:55.463Z,12.07
2022-12-18T04:33:56.935Z,11.60
2022-12-18T04:34:58.695Z,12.40
2022-12-18T04:36:00.224Z,11.43
2022-12-18T04:37:01.861Z,11.20
2022-12-18T04:38:03.344Z,11.80
2022-12-18T04:39:05.186Z,12.35
2022-12-18T04:40:07.589Z,12.35
2022-12-18T04:41:09.151Z,11.70
2022-12-18T04:42:10.606Z,11.60
2022-12-18T04:43:12.162Z,12.48
2022-12-18T04:44:13.865Z,12.15
2022-12-18T04:45:15.695Z,11.07
2022-12-18T04:46:17.241Z,12.68
2022-12-18T04:47:18.748Z,12.65
2022-12-18T04:48:21.218Z,12.70
2022-12-18T04:49:23.066Z,12.93
2022-12-18T04:50:24.784Z,12.55
2022-12-18T04:51:26.934Z,11.88
2022-12-18T04:52:28.677Z,11.95
2022-12-18T04:53:30.179Z,12.05
2022-12-18T04:54:31.619Z,12.18
2022-12-18T04:55:33.358Z,12.50
2022-12-18T04:56:34.778Z,13.10
2022-12-18T04:57:36.246Z,12.38
2022-12-18T04:58:39.110Z,12.98
2022-12-18T04:59:41.237Z,13.32
2022-12-18T05:00:42.691Z,12.25
2022-12-18T05:01:44.279Z,12.90
2022-12-18T05:02:46.581Z,12.63
2022-12-18T05:03:48.701Z,11.73
2022-12-18T05:04:50.511Z,12.15
2022-12-18T05:05:52.335Z,11.63
2022-12-18T05:06:53.754Z,12.52
2022-12-18T05:07:55.299Z,12.32
2022-12-18T05:08:56.694Z,12.45
2022-12-18T05:09:58.452Z,12.07
2022-12-18T05:11:01.919Z,12.85
2022-12-18T05:12:03.492Z,11.52
2022-12-18T05:13:04.953Z,12.13
2022-12-18T05:14:06.357Z,12.40
2022-12-18T05:15:08.315Z,12.05
2022-12-18T05:16:09.931Z,13.20
2022-12-18T05:17:11.441Z,11.55
2022-12-18T05:18:12.842Z,12.48
2022-12-18T05:19:14.325Z,12.15
2022-12-18T05:20:16.423Z,11.68
2022-12-18T05:21:17.936Z,12.00
2022-12-18T05:22:19.398Z,12.00
2022-12-18T05:23:22.601Z,11.35
2022-12-18T05:25:26.000Z,11.05
2022-12-18T05:26:27.446Z,11.13
2022-12-18T05:27:28.863Z,13.30
2022-12-18T05:28:32.015Z,11.43
2022-12-18T05:29:33.445Z,10.95
2022-12-18T05:30:35.392Z,12.73
2022-12-18T05:31:39.677Z,13.07
2022-12-18T05:32:42.022Z,12.40
2022-12-18T05:33:43.978Z,11.55
2022-12-18T05:34:45.695Z,12.77
2022-12-18T05:36:01.562Z,13.40
2022-12-18T05:37:02.989Z,13.55
2022-12-18T05:38:04.420Z,14.52
2022-12-18T05:39:05.906Z,13.15
2022-12-18T05:40:08.216Z,12.85
2022-12-18T05:41:10.790Z,11.50
2022-12-18T05:42:12.226Z,12.07
2022-12-18T05:43:17.962Z,11.88
2022-12-18T05:44:22.509Z,13.65
2022-12-18T05:45:24.312Z,12.30
2022-12-18T05:46:25.873Z,12.07
2022-12-18T05:47:28.666Z,11.50
2022-12-18T05:48:30.070Z,12.18
2022-12-18T05:49:31.518Z,11.38
2022-12-18T05:50:36.657Z,12.45
2022-12-18T05:51:38.105Z,12.07
2022-12-18T05:52:40.221Z,11.07
2022-12-18T05:53:43.283Z,11.05
2022-12-18T05:54:44.923Z,11.93
2022-12-18T05:55:47.264Z,12.18
2022-12-18T05:56:49.131Z,10.80
2022-12-18T05:57:50.608Z,11.18
2022-12-18T05:58:54.304Z,10.98
2022-12-18T05:59:55.815Z,12.07
2022-12-18T06:00:57.967Z,11.50
2022-12-18T06:01:59.566Z,12.15
2022-12-18T06:03:01.676Z,11.13
2022-12-18T06:04:03.393Z,10.77
2022-12-18T06:05:06.071Z,12.27
2022-12-18T06:06:29.461Z,11.65
2022-12-18T06:07:31.111Z,10.85
2022-12-18T06:08:32.669Z,11.23
2022-12-18T06:09:34.115Z,11.57
2022-12-18T06:10:36.118Z,11.90
2022-12-18T06:11:38.589Z,10.95
2022-12-18T06:12:40.478Z,12.00
2022-12-18T06:13:42.391Z,11.52
2022-12-18T06:14:43.969Z,11.90
2022-12-18T06:15:45.790Z,10.98
2022-12-18T06:16:47.282Z,10.93
2022-12-18T06:17:48.948Z,11.18
2022-12-18T06:18:50.401Z,11.48
2022-12-18T06:19:51.820Z,11.65
2022-12-18T06:20:57.794Z,11.00
2022-12-18T06:21:59.924Z,10.60
2022-12-18T06:23:01.411Z,12.23
2022-12-18T06:24:02.894Z,12.07
2022-12-18T06:25:04.999Z,11.25
2022-12-18T06:26:08.421Z,11.70
2022-12-18T06:27:09.846Z,11.10
2022-12-18T06:28:11.307Z,11.27
2022-12-18T06:29:12.738Z,11.60
2022-12-18T06:30:14.880Z,11.07
2022-12-18T06:31:16.605Z,10.80
2022-12-18T06:32:18.153Z,11.60
2022-12-18T06:33:19.682Z,11.93
2022-12-18T06:34:21.138Z,11.40
2022-12-18T06:35:22.622Z,11.57
2022-12-18T06:36:24.442Z,10.43
2022-12-18T06:37:27.077Z,11.13
2022-12-18T06:38:28.617Z,10.52
2022-12-18T06:39:30.607Z,11.23
2022-12-18T06:40:32.121Z,11.10
2022-12-18T06:41:33.521Z,11.20
2022-12-18T06:42:35.050Z,10.18
2022-12-18T06:43:37.568Z,10.73
2022-12-18T06:44:39.717Z,11.88
2022-12-18T06:45:41.253Z,10.15
2022-12-18T06:46:42.709Z,10.70
2022-12-18T06:47:44.650Z,10.95
2022-12-18T06:48:50.931Z,11.27
2022-12-18T06:49:52.701Z,11.20
2022-12-18T06:50:54.139Z,10.32
2022-12-18T06:51:55.561Z,10.15
2022-12-18T06:52:57.146Z,10.82
2022-12-18T06:53:58.721Z,11.63
2022-12-18T06:55:00.985Z,10.07
2022-12-18T06:56:10.365Z,10.95
2022-12-18T06:57:12.463Z,11.43
2022-12-18T06:58:13.913Z,11.73
2022-12-18T06:59:15.719Z,10.52
2022-12-18T07:00:17.504Z,10.57
2022-12-18T07:01:19.366Z,10.35
2022-12-18T07:02:21.002Z,11.32
2022-12-18T07:03:22.515Z,11.60
2022-12-18T07:04:29.918Z,10.27
2022-12-18T07:05:31.417Z,10.95
2022-12-18T07:06:32.826Z,11.07
2022-12-18T07:07:35.743Z,11.23
2022-12-18T07:08:37.176Z,9.75
2022-12-18T07:09:38.928Z,10.15
2022-12-18T07:10:47.400Z,10.13
2022-12-18T07:11:49.014Z,10.52
2022-12-18T07:12:50.440Z,11.40
2022-12-18T07:13:53.840Z,11.18
2022-12-18T07:14:55.585Z,11.55
2022-12-18T07:16:04.758Z,10.65
2022-12-18T07:17:06.662Z,10.80
2022-12-18T07:18:08.499Z,11.52
2022-12-18T07:19:10.292Z,10.57
2022-12-18T07:20:11.890Z,11.35
2022-12-18T07:21:16.110Z,10.65
2022-12-18T07:22:17.567Z,11.02
2022-12-18T07:23:18.974Z,10.05
2022-12-18T07:24:20.473Z,10.23
2022-12-18T07:25:22.438Z,10.60
2022-12-18T07:26:24.328Z,9.65
2022-12-18T07:27:25.755Z,10.73
2022-12-18T07:28:27.567Z,10.00
2022-12-18T07:29:29.780Z,10.20
2022-12-18T07:30:31.259Z,10.15
2022-12-18T07:31:32.719Z,10.85
2022-12-18T07:32:34.209Z,10.13
2022-12-18T07:33:36.198Z,9.70
2022-12-18T07:34:37.781Z,9.82
2022-12-18T07:35:39.222Z,10.60
2022-12-18T07:36:40.870Z,9.80
2022-12-18T07:37:42.295Z,10.38
2022-12-18T07:38:43.990Z,9.52
2022-12-18T07:39:45.433Z,9.93
2022-12-18T07:40:47.141Z,9.82
2022-12-18T07:42:08.512Z,9.93
2022-12-18T07:43:09.931Z,10.85
2022-12-18T07:44:11.853Z,10.05
2022-12-18T07:45:13.325Z,9.43
2022-12-18T07:46:16.682Z,9.63
2022-12-18T07:47:18.177Z,9.80
2022-12-18T07:48:19.600Z,10.77
2022-12-18T07:49:21.173Z,9.57
2022-12-18T07:50:22.937Z,10.07
2022-12-18T07:51:24.401Z,9.35
2022-12-18T07:52:26.450Z,9.48
2022-12-18T07:53:28.333Z,9.25
2022-12-18T07:54:29.766Z,9.25
2022-12-18T07:55:59.973Z,10.13
2022-12-18T07:56:53.921Z,9.00
2022-12-18T07:58:00.655Z,9.98
2022-12-18T07:59:03.233Z,10.50
2022-12-18T08:00:05.216Z,10.35
2022-12-18T08:01:08.151Z,10.13
2022-12-18T08:02:09.776Z,8.75
2022-12-18T08:03:11.422Z,9.85
2022-12-18T08:04:13.679Z,8.90
2022-12-18T08:05:15.151Z,10.30
2022-12-18T08:06:16.594Z,10.32
2022-12-18T08:07:18.040Z,9.70
2022-12-18T08:08:19.448Z,9.63
2022-12-18T08:09:20.958Z,9.55
2022-12-18T08:10:22.830Z,9.85
2022-12-18T08:11:26.501Z,9.35
2022-12-18T08:12:27.946Z,8.55
2022-12-18T08:13:29.488Z,9.43
2022-12-18T08:14:30.957Z,9.18
2022-12-18T08:15:32.375Z,9.85
2022-12-18T08:16:33.821Z,9.52
2022-12-18T08:17:35.517Z,9.93
2022-12-18T08:18:38.244Z,10.25
2022-12-18T08:19:39.722Z,10.45
2022-12-18T08:20:41.148Z,10.18
2022-12-18T08:21:42.622Z,9.15
2022-12-18T08:22:44.028Z,10.02
2022-12-18T08:23:46.131Z,10.18
2022-12-18T08:24:48.007Z,9.32
2022-12-18T08:25:49.681Z,10.45
2022-12-18T08:27:01.050Z,10.07
2022-12-18T08:28:12.946Z,10.02
2022-12-18T08:29:19.942Z,10.73
2022-12-18T08:30:23.119Z,10.68
2022-12-18T08:31:25.039Z,10.23
2022-12-18T08:32:28.126Z,9.43
2022-12-18T08:33:29.884Z,9.55
2022-12-18T08:34:31.808Z,9.45
2022-12-18T08:35:42.509Z,10.65
2022-12-18T08:36:46.998Z,9.15
2022-12-18T08:37:48.478Z,10.13
2022-12-18T08:38:50.330Z,9.02
2022-12-18T08:39:51.817Z,9.93
2022-12-18T08:41:03.402Z,10.75
2022-12-18T08:42:23.364Z,9.80
2022-12-18T08:43:43.848Z,9.43
2022-12-18T08:44:45.369Z,8.75
2022-12-18T08:45:46.905Z,9.80
2022-12-18T08:46:48.419Z,9.23
2022-12-18T08:47:49.855Z,8.68
2022-12-18T08:48:52.878Z,9.65
2022-12-18T08:49:54.338Z,8.80
2022-12-18T08:51:00.593Z,8.80
2022-12-18T08:52:03.644Z,9.75
2022-12-18T08:53:05.383Z,8.70
2022-12-18T08:54:07.791Z,9.23
2022-12-18T08:55:09.954Z,10.32
2022-12-18T08:56:12.322Z,9.90
2022-12-18T08:57:13.741Z,8.85
2022-12-18T08:58:15.150Z,10.25
2022-12-18T08:59:20.097Z,9.25
2022-12-18T09:00:22.388Z,9.13
2022-12-18T09:01:25.194Z,10.35
2022-12-18T09:02:26.922Z,9.25
2022-12-18T09:03:28.798Z,9.82
2022-12-18T09:04:30.337Z,9.68
2022-12-18T09:05:31.937Z,9.57
2022-12-18T09:06:33.433Z,9.05
2022-12-18T09:07:34.870Z,10.05
2022-12-18T09:08:38.037Z,10.88
2022-12-18T09:09:40.030Z,9.80
2022-12-18T09:10:45.980Z,10.00
2022-12-18T09:11:47.437Z,10.20
2022-12-18T09:12:48.819Z,9.20
2022-12-18T09:13:51.703Z,9.77
2022-12-18T09:14:53.209Z,9.65
2022-12-18T09:15:56.217Z,8.77
2022-12-18T09:16:57.636Z,8.70
2022-12-18T09:17:59.065Z,9.48
2022-12-18T09:19:00.756Z,9.13
2022-12-18T09:20:02.337Z,9.65
2022-12-18T09:21:11.534Z,9.48
2022-12-18T09:22:12.995Z,9.20
2022-12-18T09:23:15.472Z,11.13
2022-12-18T09:24:18.135Z,9.05
2022-12-18T09:25:19.708Z,8.93
2022-12-18T09:26:22.466Z,9.85
2022-12-18T09:27:23.888Z,9.48
2022-12-18T09:28:25.373Z,8.40
2022-12-18T09:29:27.207Z,9.68
2022-12-18T09:30:28.808Z,10.05
2022-12-18T09:31:30.285Z,10.48
2022-12-18T09:32:31.741Z,9.30
2022-12-18T09:33:33.242Z,9.43
2022-12-18T09:34:34.880Z,9.05
2022-12-18T09:35:40.839Z,9.18
2022-12-18T09:36:42.331Z,9.25
2022-12-18T09:37:45.175Z,9.05
2022-12-18T09:38:47.017Z,9.13
2022-12-18T09:39:48.473Z,9.55
2022-12-18T09:40:55.016Z,8.60
2022-12-18T09:41:58.875Z,8.85
2022-12-18T09:43:04.226Z,9.05
2022-12-18T09:44:15.194Z,9.18
2022-12-18T09:45:18.061Z,9.38
2022-12-18T09:46:32.143Z,9.45
2022-12-18T09:47:38.655Z,8.98
2022-12-18T09:48:43.990Z,8.45
2022-12-18T09:49:48.671Z,10.13
2022-12-18T09:50:52.264Z,9.93
2022-12-18T09:52:01.004Z,10.05
2022-12-18T09:53:16.890Z,9.45
2022-12-18T09:54:26.780Z,10.15
2022-12-18T09:55:42.251Z,9.00
2022-12-18T09:56:45.550Z,9.55
2022-12-18T09:57:52.352Z,9.40
2022-12-18T09:59:00.005Z,8.68
2022-12-18T10:00:16.008Z,9.88
2022-12-18T10:01:23.713Z,8.52
2022-12-18T10:02:27.582Z,9.82
2022-12-18T10:03:31.991Z,10.15
2022-12-18T10:04:34.290Z,9.75
2022-12-18T10:05:42.933Z,9.10
2022-12-18T10:06:49.673Z,8.93
2022-12-18T10:07:56.434Z,9.35
2022-12-18T10:09:12.341Z,9.48
2022-12-18T10:10:47.492Z,9.13
2022-12-18T10:12:01.239Z,9.35
2022-12-18T10:13:18.074Z,10.35
2022-12-18T10:14:42.988Z,8.77
2022-12-18T10:16:10.226Z,9.05
2022-12-18T10:17:22.091Z,8.98
2022-12-18T10:18:48.771Z,9.18
2022-12-18T10:20:05.855Z,10.25
2022-12-18T10:21:21.241Z,9.90
2022-12-18T10:22:27.580Z,8.48
2022-12-18T10:24:09.993Z,10.52
2022-12-18T10:25:20.411Z,8.25
2022-12-18T10:26:21.989Z,9.07
2022-12-18T10:27:26.989Z,8.90
2022-12-18T10:28:31.570Z,9.05
2022-12-18T10:29:33.466Z,9.40
2022-12-18T10:30:34.962Z,9.32
2022-12-18T10:31:36.793Z,10.10
2022-12-18T10:32:38.792Z,9.73
2022-12-18T10:33:42.230Z,10.02
2022-12-18T10:34:47.238Z,8.52
2022-12-18T10:35:58.800Z,9.20
2022-12-18T10:37:02.720Z,8.23
2022-12-18T10:38:06.874Z,8.73
2022-12-18T10:39:23.620Z,10.82
2022-12-18T10:40:25.140Z,9.88
2022-12-18T10:41:29.181Z,9.82
2022-12-18T10:42:31.023Z,9.77
2022-12-18T10:43:37.650Z,10.68
2022-12-18T10:44:39.670Z,11.40
2022-12-18T10:45:42.711Z,9.80
2022-12-18T10:46:47.074Z,18.23
2022-12-18T10:47:50.271Z,12.32
2022-12-18T10:49:56.766Z,8.77
2022-12-18T10:51:14.005Z,9.57
2022-12-18T10:52:18.471Z,8.68
2022-12-18T10:53:26.421Z,9.27
2022-12-18T10:54:30.243Z,9.05
2022-12-18T10:55:38.567Z,9.40
2022-12-18T10:56:40.250Z,9.35
2022-12-18T10:57:42.722Z,9.40
2022-12-18T10:58:56.799Z,9.68
2022-12-18T11:00:00.331Z,8.27
2022-12-18T11:01:15.029Z,9.23
2022-12-18T11:02:28.498Z,10.32
2022-12-18T11:03:37.018Z,9.27
2022-12-18T11:04:51.967Z,9.65
2022-12-18T11:06:07.196Z,9.88
2022-12-18T11:07:09.962Z,8.60
2022-12-18T11:08:23.646Z,8.15
2022-12-18T11:09:32.978Z,8.20
2022-12-18T11:11:38.369Z,8.40
2022-12-18T11:12:40.531Z,9.43
2022-12-18T11:13:42.113Z,9.18
2022-12-18T11:14:48.665Z,8.18
2022-12-18T11:15:50.453Z,7.88
2022-12-18T11:18:31.416Z,9.73
2022-12-18T11:19:38.983Z,8.85
2022-12-18T11:20:40.452Z,9.02
2022-12-18T11:21:43.335Z,9.07
2022-12-18T11:22:59.258Z,9.57
2022-12-18T11:24:00.706Z,9.40
2022-12-18T11:26:36.789Z,8.45
2022-12-18T11:27:40.238Z,8.88
2022-12-18T11:28:52.069Z,8.55
2022-12-18T11:29:53.519Z,9.50
2022-12-18T11:31:17.214Z,10.18
2022-12-18T11:32:33.973Z,10.38
2022-12-18T11:33:37.590Z,8.40
2022-12-18T11:34:39.554Z,8.40
2022-12-18T11:35:49.154Z,8.50
2022-12-18T11:36:51.225Z,9.50
2022-12-18T11:38:07.466Z,8.50
2022-12-18T11:39:25.465Z,10.15
2022-12-18T11:40:40.845Z,10.40
2022-12-18T11:42:10.093Z,9.18
2022-12-18T11:43:17.971Z,8.93
2022-12-18T11:44:43.590Z,8.63
2022-12-18T11:45:56.287Z,8.02
2022-12-18T11:47:08.860Z,8.43
2022-12-18T11:48:29.403Z,9.32
2022-12-18T11:49:35.909Z,8.00
2022-12-18T11:50:37.599Z,8.00
2022-12-18T11:51:52.682Z,8.98
2022-12-18T11:52:57.507Z,9.70
2022-12-18T11:54:11.196Z,9.15
2022-12-18T11:55:36.129Z,8.73
2022-12-18T11:56:48.465Z,8.20
2022-12-18T11:58:13.519Z,7.40
2022-12-18T11:59:41.049Z,8.13
2022-12-18T12:01:02.978Z,8.48
2022-12-18T12:02:29.269Z,8.75
2022-12-18T12:03:55.316Z,8.48
2022-12-18T12:05:05.301Z,8.52
2022-12-18T12:06:30.294Z,8.68
2022-12-18T12:07:53.401Z,8.18
2022-12-18T12:09:07.812Z,8.73
2022-12-18T12:10:27.995Z,8.75
2022-12-18T12:11:48.045Z,8.68
2022-12-18T12:13:01.369Z,7.88
2022-12-18T12:14:24.170Z,8.10
2022-12-18T12:15:43.890Z,9.00
2022-12-18T12:16:54.831Z,8.10
2022-12-18T12:18:16.735Z,9.35
2022-12-18T12:19:41.076Z,9.13
2022-12-18T12:20:45.216Z,9.43
2022-12-18T12:22:28.821Z,9.18
2022-12-18T12:23:41.456Z,9.52
2022-12-18T12:25:01.735Z,7.72
2022-12-18T12:26:08.793Z,9.35
2022-12-18T12:27:30.506Z,8.27
2022-12-18T12:28:47.235Z,8.65
2022-12-18T12:29:57.729Z,9.05
2022-12-18T12:31:34.814Z,8.85
2022-12-18T12:32:46.715Z,9.00
2022-12-18T12:34:12.734Z,9.23
2022-12-18T12:35:17.715Z,8.63
2022-12-18T12:36:31.968Z,9.02
2022-12-18T12:37:58.311Z,8.60
2022-12-18T12:39:04.184Z,8.48
2022-12-18T12:40:26.733Z,8.73
2022-12-18T12:41:52.425Z,8.05
2022-12-18T12:43:15.820Z,8.93
2022-12-18T12:44:43.837Z,9.02
2022-12-18T12:45:51.403Z,9.02
2022-12-18T12:46:57.565Z,9.10
2022-12-18T12:48:02.569Z,8.82
2022-12-18T12:49:10.912Z,9.73
2022-12-18T12:50:17.801Z,8.80
2022-12-18T12:51:27.294Z,8.95
2022-12-18T12:52:36.414Z,9.02
2022-12-18T12:53:40.149Z,9.82
2022-12-18T12:54:43.670Z,9.65
2022-12-18T12:55:45.366Z,9.77
2022-12-18T12:57:06.961Z,8.38
2022-12-18T12:59:51.757Z,8.10
2022-12-18T13:01:23.585Z,8.50
2022-12-18T13:02:43.925Z,8.45
2022-12-18T13:04:13.136Z,7.47
2022-12-18T13:05:52.259Z,10.65
2022-12-18T13:07:06.331Z,9.73
2022-12-18T13:08:26.595Z,8.55
2022-12-18T13:09:36.629Z,9.70
2022-12-18T13:10:47.236Z,9.18
2022-12-18T13:12:08.084Z,8.10
2022-12-18T13:13:17.193Z,8.43
2022-12-18T13:14:30.380Z,8.75
2022-12-18T13:15:36.714Z,9.80
2022-12-18T13:16:41.675Z,8.63
2022-12-18T13:17:43.130Z,8.73
2022-12-18T13:18:52.505Z,9.18
2022-12-18T13:20:10.065Z,8.18
2022-12-18T13:21:29.641Z,9.10
2022-12-18T13:22:34.275Z,9.20
2022-12-18T13:23:37.750Z,8.68
2022-12-18T13:24:39.281Z,9.85
2022-12-18T13:25:40.810Z,9.55
2022-12-18T13:26:42.690Z,8.85
2022-12-18T13:27:44.055Z,8.98
2022-12-18T13:28:48.227Z,9.27
2022-12-18T13:29:49.794Z,9.15
2022-12-18T13:30:59.198Z,9.60
2022-12-18T13:33:15.451Z,8.40
2022-12-18T13:35:47.937Z,7.88
2022-12-18T13:36:51.043Z,7.97
2022-12-18T13:37:55.388Z,9.32
2022-12-18T13:39:18.464Z,8.70
2022-12-18T13:40:41.130Z,8.13
2022-12-18T13:41:44.195Z,7.82
2022-12-18T13:43:04.751Z,8.60
2022-12-18T13:44:32.571Z,8.93
2022-12-18T13:45:42.996Z,7.93
2022-12-18T13:46:47.494Z,8.45
2022-12-18T13:47:49.715Z,9.27
2022-12-18T13:49:19.153Z,8.50
2022-12-18T13:50:28.692Z,7.70
2022-12-18T13:51:36.449Z,7.97
2022-12-18T13:52:40.458Z,7.90
2022-12-18T13:54:05.999Z,8.30
2022-12-18T13:55:17.297Z,7.28
2022-12-18T13:56:22.466Z,8.40
2022-12-18T13:57:35.812Z,8.90
2022-12-18T13:58:37.880Z,9.00
2022-12-18T13:59:41.706Z,7.82
2022-12-18T14:00:45.045Z,8.40
2022-12-18T14:01:53.154Z,8.18
2022-12-18T14:02:56.053Z,8.25
2022-12-18T14:04:11.501Z,7.80
2022-12-18T14:05:26.895Z,8.02
2022-12-18T14:07:37.779Z,7.72
2022-12-18T14:08:45.476Z,7.90
2022-12-18T14:09:52.312Z,7.88
2022-12-18T14:10:57.637Z,7.55
2022-12-18T14:12:18.076Z,8.85
2022-12-18T14:13:42.185Z,9.93
2022-12-18T14:14:48.202Z,8.48
2022-12-18T14:15:52.296Z,7.82
2022-12-18T14:18:01.908Z,8.30
2022-12-18T14:19:14.943Z,7.47
2022-12-18T14:20:18.519Z,8.43
2022-12-18T14:21:33.774Z,7.97
2022-12-18T14:22:35.713Z,7.57
2022-12-18T14:23:43.208Z,9.02
2022-12-18T14:24:45.393Z,9.57
2022-12-18T14:25:47.346Z,7.38
2022-12-18T14:26:51.053Z,7.47
2022-12-18T14:28:02.694Z,7.85
2022-12-18T14:29:23.027Z,7.50
2022-12-18T14:30:24.518Z,8.13
2022-12-18T14:31:28.067Z,8.32
2022-12-18T14:32:29.537Z,7.60
2022-12-18T14:33:30.967Z,7.10
2022-12-18T14:34:32.403Z,7.70
2022-12-18T14:35:36.605Z,7.82
2022-12-18T14:36:41.374Z,7.95
2022-12-18T14:37:42.795Z,8.27
2022-12-18T14:38:48.603Z,8.57
2022-12-18T14:40:15.154Z,8.38
2022-12-18T14:41:19.096Z,8.93
2022-12-18T14:42:20.940Z,7.75
2022-12-18T14:43:22.830Z,8.15